Avon, Colorado
Current Conditions -  °F | °C
As of 1:50 PM on Friday 19 Dec 2014 (Local Time) from KEGE Reporting Station
Few Clouds Few Clouds  
Wind Chill: 26°   Ceiling: Unl
Heat Index: 36°   Visibility: 10mi
Dew Point: 19°   Wind: 16mph
Humidity: 52%   Direction: 220°SW
Pressure: 30.17"   Gusts: NA
Location:  39.63°N, 106.52°W
Report Text: KEGE 192050Z 22014KT 10SM FEW060 02/M07 A3017
Loading
Personal Weather Stations






























Interactive Weather Map New forecast layout! Learn more

10-Day Weather Forecast

Advertisements
Track Severe Weather on mobile